Weather at Sheremetyevo International Airport

Public forecast

Using degrees Celsius for public forecast. Weather courtesy of forecast.io.

Current aviation weather report (METAR) for Sheremetyevo International Airport

Report is more than 6 hours old.

2022/11/14 15:30 (retrieved 2 years ago)

UUEE 141530Z 32003MPS 290V350 9999 BKN039 M00/M06 Q1024 R24L/CLRD62 R24C/CLRD62 NOSIG

Aviation forecast (TAF) for Sheremetyevo International Airport

Forecast is more than 12 hours old.

2023/02/22 21:21 (retrieved 1 year ago)

TAF UUEE 221954Z 2221/2321 31005G10MPS 8000 FEW006 BKN016 TXM10/2312Z TNM16/2306Z TEMPO 2300/2307 BKN006 BECMG 2315/2317 25005MPS